createdAt,value
2022-11-29T00:01:20.783Z,11.68
2022-11-29T00:03:47.500Z,8.25
2022-11-29T00:06:22.214Z,10.70
2022-11-29T00:08:48.916Z,9.15
2022-11-29T00:11:38.681Z,7.85
2022-11-29T00:14:06.617Z,9.60
2022-11-29T00:16:33.500Z,10.35
2022-11-29T00:19:00.169Z,8.45
2022-11-29T00:21:26.792Z,8.77
2022-11-29T00:23:53.364Z,8.82
2022-11-29T00:26:19.879Z,9.57
2022-11-29T00:28:46.367Z,8.75
2022-11-29T00:31:20.443Z,8.38
2022-11-29T00:33:47.360Z,6.75
2022-11-29T00:36:14.289Z,8.60
2022-11-29T00:38:41.476Z,7.32
2022-11-29T00:41:08.923Z,8.43
2022-11-29T00:43:35.390Z,9.30
2022-11-29T00:46:02.166Z,9.02
2022-11-29T00:48:29.657Z,8.65
2022-11-29T00:50:56.186Z,9.00
2022-11-29T00:53:22.927Z,6.40
2022-11-29T00:55:50.420Z,5.57
2022-11-29T00:58:17.134Z,6.07
2022-11-29T01:00:43.770Z,6.03
2022-11-29T01:03:10.487Z,5.28
2022-11-29T01:05:37.146Z,4.65
2022-11-29T01:08:04.447Z,4.07
2022-11-29T01:10:30.920Z,4.55
2022-11-29T01:12:57.407Z,5.80
2022-11-29T01:15:24.207Z,5.63
2022-11-29T01:17:50.970Z,6.75
2022-11-29T01:20:17.668Z,6.63
2022-11-29T01:22:44.254Z,6.82
2022-11-29T01:25:15.458Z,6.95
2022-11-29T01:27:42.298Z,6.80
2022-11-29T01:30:10.200Z,6.63
2022-11-29T01:32:37.386Z,8.07
2022-11-29T01:35:07.395Z,7.60
2022-11-29T01:37:34.266Z,7.53
2022-11-29T01:40:00.728Z,6.63
2022-11-29T01:42:27.182Z,6.50
2022-11-29T01:45:10.314Z,7.32
2022-11-29T01:47:39.453Z,5.97
2022-11-29T01:50:07.921Z,8.20
2022-11-29T01:52:34.468Z,5.95
2022-11-29T01:55:03.710Z,6.43
2022-11-29T02:00:02.394Z,5.50
2022-11-29T02:03:14.887Z,6.15
2022-11-29T02:05:47.924Z,8.95
2022-11-29T02:08:16.815Z,5.82
2022-11-29T02:10:46.148Z,7.80
2022-11-29T02:13:29.757Z,9.05
2022-11-29T02:16:04.873Z,6.45
2022-11-29T02:18:45.368Z,7.45
2022-11-29T02:21:35.453Z,7.63
2022-11-29T02:24:20.371Z,6.38
2022-11-29T02:27:00.232Z,6.45
2022-11-29T02:29:34.570Z,5.95
2022-11-29T02:32:38.727Z,5.78
2022-11-29T02:35:24.654Z,8.77
2022-11-29T02:37:57.250Z,6.65
2022-11-29T02:41:01.133Z,6.90
2022-11-29T02:43:33.588Z,5.55
2022-11-29T02:46:25.700Z,5.78
2022-11-29T02:49:02.641Z,6.57
2022-11-29T02:51:43.273Z,6.95
2022-11-29T02:54:47.429Z,7.20
2022-11-29T02:57:37.355Z,5.20
2022-11-29T03:00:11.196Z,7.68
2022-11-29T03:03:02.390Z,6.22
2022-11-29T03:05:42.038Z,7.18
2022-11-29T03:08:30.111Z,7.00
2022-11-29T03:11:03.605Z,6.22
2022-11-29T03:13:52.868Z,7.78
2022-11-29T03:16:43.090Z,6.88
2022-11-29T03:19:34.952Z,6.60
2022-11-29T03:22:12.066Z,6.93
2022-11-29T03:24:52.299Z,7.20
2022-11-29T03:27:29.992Z,7.60
2022-11-29T03:29:59.310Z,6.45
2022-11-29T03:32:31.518Z,7.53
2022-11-29T03:35:20.950Z,6.07
2022-11-29T03:40:25.594Z,5.85
2022-11-29T03:42:59.617Z,6.78
2022-11-29T03:45:32.162Z,7.80
2022-11-29T03:48:22.099Z,6.63
2022-11-29T03:51:01.822Z,6.43
2022-11-29T03:53:36.925Z,6.97
2022-11-29T03:56:22.042Z,5.55
2022-11-29T03:59:37.611Z,6.20
2022-11-29T04:02:20.216Z,5.93
2022-11-29T04:05:10.655Z,7.18
2022-11-29T04:08:04.290Z,5.82
2022-11-29T04:10:51.311Z,4.68
2022-11-29T04:13:39.675Z,6.80
2022-11-29T04:16:24.441Z,7.00
2022-11-29T04:19:12.270Z,5.57
2022-11-29T04:21:41.793Z,6.18
2022-11-29T04:27:05.755Z,7.85
2022-11-29T04:29:50.556Z,7.05
2022-11-29T04:32:45.032Z,6.15
2022-11-29T04:35:23.755Z,6.95
2022-11-29T04:38:08.778Z,9.00
2022-11-29T04:40:50.409Z,8.07
2022-11-29T04:43:16.875Z,9.05
2022-11-29T04:45:57.400Z,10.10
2022-11-29T04:48:50.592Z,13.23
2022-11-29T04:51:23.759Z,10.35
2022-11-29T04:54:23.291Z,9.73
2022-11-29T04:56:54.066Z,11.43
2022-11-29T04:59:35.980Z,11.23
2022-11-29T05:02:25.687Z,12.40
2022-11-29T05:05:08.067Z,11.63
2022-11-29T05:07:49.359Z,18.48
2022-11-29T05:10:33.734Z,11.77
2022-11-29T05:13:06.317Z,12.80
2022-11-29T05:15:50.544Z,14.63
2022-11-29T05:18:54.917Z,17.73
2022-11-29T05:21:30.547Z,15.95
2022-11-29T05:24:17.553Z,16.00
2022-11-29T05:26:51.219Z,17.27
2022-11-29T05:29:54.760Z,14.90
2022-11-29T05:32:28.702Z,16.05
2022-11-29T05:35:10.603Z,19.98
2022-11-29T05:37:50.213Z,22.10
2022-11-29T05:40:34.991Z,18.90
2022-11-29T05:43:38.265Z,18.88
2022-11-29T05:46:18.832Z,23.60
2022-11-29T05:48:54.362Z,25.15
2022-11-29T05:51:33.376Z,25.35
2022-11-29T05:54:30.107Z,24.50
2022-11-29T05:57:14.215Z,21.13
2022-11-29T05:59:42.247Z,21.73
2022-11-29T06:02:20.708Z,28.15
2022-11-29T06:04:49.896Z,22.88
2022-11-29T06:07:20.829Z,23.48
2022-11-29T06:10:00.606Z,25.05
2022-11-29T06:12:30.984Z,24.88
2022-11-29T06:15:20.854Z,26.50
2022-11-29T06:17:57.386Z,24.77
2022-11-29T06:20:43.875Z,28.38
2022-11-29T06:23:29.640Z,27.20
2022-11-29T06:26:04.047Z,26.25
2022-11-29T06:29:02.048Z,24.23
2022-11-29T06:31:43.984Z,26.60
2022-11-29T06:34:10.567Z,29.75
2022-11-29T06:37:02.034Z,24.33
2022-11-29T06:39:28.811Z,24.67
2022-11-29T06:41:55.426Z,23.30
2022-11-29T06:44:22.388Z,25.20
2022-11-29T06:46:56.958Z,23.90
2022-11-29T06:49:27.705Z,26.10
2022-11-29T06:52:07.016Z,27.17
2022-11-29T06:54:39.556Z,30.95
2022-11-29T06:57:25.068Z,25.70
2022-11-29T06:59:57.617Z,27.67
2022-11-29T07:02:44.607Z,29.23
2022-11-29T07:05:23.419Z,23.95
2022-11-29T07:07:53.254Z,27.00
2022-11-29T07:10:20.878Z,26.05
2022-11-29T07:12:49.231Z,30.80
2022-11-29T07:15:18.916Z,25.98
2022-11-29T07:18:08.765Z,28.42
2022-11-29T07:21:07.293Z,24.90
2022-11-29T07:23:52.198Z,27.67
2022-11-29T07:26:26.271Z,30.52
2022-11-29T07:29:27.962Z,28.27
2022-11-29T07:32:14.152Z,25.45
2022-11-29T07:34:53.677Z,31.80
2022-11-29T07:42:41.687Z,29.73
2022-11-29T07:45:22.460Z,32.35
2022-11-29T07:47:50.216Z,31.65
2022-11-29T07:50:16.879Z,27.75
2022-11-29T07:52:43.750Z,31.92
2022-11-29T07:55:21.352Z,32.85
2022-11-29T07:57:48.495Z,30.38
2022-11-29T08:00:15.911Z,28.55
2022-11-29T08:02:43.109Z,28.58
2022-11-29T08:05:10.128Z,30.58
2022-11-29T08:07:38.003Z,33.63
2022-11-29T08:10:06.404Z,31.65
2022-11-29T08:12:33.022Z,30.15
2022-11-29T08:14:59.799Z,28.15
2022-11-29T08:17:26.738Z,25.75
2022-11-29T08:19:53.298Z,28.67
2022-11-29T08:22:19.793Z,28.35
2022-11-29T08:24:46.706Z,27.00
2022-11-29T08:27:14.108Z,29.33
2022-11-29T08:29:40.649Z,29.60
2022-11-29T08:32:07.220Z,31.25
2022-11-29T08:34:33.793Z,31.58
2022-11-29T08:37:00.392Z,34.17
2022-11-29T08:39:26.995Z,31.27
2022-11-29T08:41:53.500Z,27.48
2022-11-29T08:44:20.158Z,28.80
2022-11-29T08:47:05.534Z,29.88
2022-11-29T08:49:32.090Z,33.22
2022-11-29T08:52:16.908Z,30.02
2022-11-29T08:54:44.188Z,31.85
2022-11-29T08:57:38.656Z,28.83
2022-11-29T08:59:57.798Z,30.60
2022-11-29T09:02:24.439Z,31.30
2022-11-29T09:04:51.027Z,29.85
2022-11-29T09:07:17.683Z,31.33
2022-11-29T09:09:44.442Z,30.80
2022-11-29T09:12:10.983Z,29.05
2022-11-29T09:14:37.693Z,30.05
2022-11-29T09:17:04.520Z,27.85
2022-11-29T09:19:31.199Z,30.08
2022-11-29T09:21:57.744Z,24.40
2022-11-29T09:24:24.234Z,29.08
2022-11-29T09:26:50.816Z,30.75
2022-11-29T09:29:17.766Z,30.92
2022-11-29T09:31:47.514Z,25.65
2022-11-29T09:34:15.279Z,33.22
2022-11-29T09:36:44.082Z,29.02
2022-11-29T09:39:12.340Z,30.95
2022-11-29T09:42:09.639Z,29.90
2022-11-29T09:44:59.340Z,32.53
2022-11-29T09:47:38.051Z,34.60
2022-11-29T09:50:36.146Z,31.25
2022-11-29T09:53:17.964Z,29.38
2022-11-29T09:56:23.615Z,30.90
2022-11-29T09:58:58.138Z,28.90
2022-11-29T10:01:46.720Z,31.90
2022-11-29T10:04:22.535Z,29.40
2022-11-29T10:07:09.026Z,29.10
2022-11-29T10:09:41.707Z,29.85
2022-11-29T10:12:13.632Z,31.88
2022-11-29T10:14:49.787Z,34.65
2022-11-29T10:17:34.077Z,32.08
2022-11-29T10:20:13.334Z,30.88
2022-11-29T10:22:53.529Z,31.70
2022-11-29T10:25:30.439Z,33.90
2022-11-29T10:27:56.999Z,36.28
2022-11-29T10:30:23.646Z,31.08
2022-11-29T10:32:58.351Z,32.45
2022-11-29T10:35:24.915Z,35.42
2022-11-29T10:38:22.741Z,32.97
2022-11-29T10:40:44.677Z,30.98
2022-11-29T10:43:11.467Z,28.63
2022-11-29T10:45:50.905Z,30.85
2022-11-29T10:48:20.380Z,35.10
2022-11-29T10:50:49.072Z,27.17
2022-11-29T10:53:35.892Z,29.50
2022-11-29T10:56:05.802Z,31.75
2022-11-29T10:58:32.836Z,24.95
2022-11-29T11:01:07.021Z,24.42
2022-11-29T11:03:42.490Z,27.52
2022-11-29T11:06:15.049Z,24.25
2022-11-29T11:08:44.340Z,27.85
2022-11-29T11:11:12.163Z,26.00
2022-11-29T11:13:41.016Z,21.58
2022-11-29T11:16:19.123Z,24.38
2022-11-29T11:18:47.281Z,20.73
2022-11-29T11:21:16.301Z,20.33
2022-11-29T11:23:58.435Z,20.98
2022-11-29T11:26:26.362Z,23.45
2022-11-29T11:29:01.256Z,22.02
2022-11-29T11:31:29.704Z,19.25
2022-11-29T11:33:56.512Z,21.23
2022-11-29T11:36:25.026Z,20.27
2022-11-29T11:38:52.969Z,23.90
2022-11-29T11:41:49.413Z,18.25
2022-11-29T11:47:27.762Z,18.15
2022-11-29T11:50:00.405Z,21.80
2022-11-29T11:52:32.971Z,17.13
2022-11-29T11:55:06.212Z,17.05
2022-11-29T11:57:32.881Z,20.25
2022-11-29T12:00:06.399Z,19.85
2022-11-29T12:02:39.043Z,15.90
2022-11-29T12:05:12.483Z,16.73
2022-11-29T12:10:38.619Z,17.05
2022-11-29T12:13:05.316Z,15.85
2022-11-29T12:15:36.195Z,15.65
2022-11-29T12:18:12.286Z,15.52
2022-11-29T12:20:53.158Z,15.52
2022-11-29T12:23:34.422Z,11.85
2022-11-29T12:26:28.576Z,14.75
2022-11-29T12:31:42.151Z,13.18
2022-11-29T12:34:23.695Z,13.68
2022-11-29T12:37:21.546Z,11.88
2022-11-29T12:40:05.254Z,13.93
2022-11-29T12:42:46.911Z,14.18
2022-11-29T12:45:32.474Z,15.38
2022-11-29T12:48:26.964Z,16.20
2022-11-29T12:51:06.821Z,13.90
2022-11-29T12:53:45.438Z,12.20
2022-11-29T12:56:48.785Z,15.73
2022-11-29T12:59:30.167Z,15.48
2022-11-29T13:02:32.183Z,15.05
2022-11-29T13:05:04.103Z,13.95
2022-11-29T13:08:01.473Z,12.02
2022-11-29T13:10:49.490Z,12.73
2022-11-29T13:13:31.471Z,9.98
2022-11-29T13:16:30.887Z,13.73
2022-11-29T13:19:05.559Z,10.38
2022-11-29T13:21:39.113Z,11.23
2022-11-29T13:24:26.039Z,13.30
2022-11-29T13:26:52.924Z,8.13
2022-11-29T13:29:20.378Z,10.40
2022-11-29T13:31:47.798Z,8.70
2022-11-29T13:34:23.026Z,10.27
2022-11-29T13:37:14.264Z,8.38
2022-11-29T13:39:55.992Z,12.40
2022-11-29T13:42:36.508Z,7.93
2022-11-29T13:45:33.920Z,8.68
2022-11-29T13:48:02.257Z,8.32
2022-11-29T13:50:37.446Z,8.35
2022-11-29T13:53:13.535Z,9.10
2022-11-29T13:56:08.173Z,7.72
2022-11-29T13:58:39.619Z,8.57
2022-11-29T14:01:13.594Z,10.00
2022-11-29T14:03:45.110Z,10.35
2022-11-29T14:06:12.863Z,10.43
2022-11-29T14:09:18.416Z,7.50
2022-11-29T14:11:50.142Z,9.48
2022-11-29T14:14:16.742Z,8.95
2022-11-29T14:16:43.166Z,8.85
2022-11-29T14:19:10.001Z,8.15
2022-11-29T14:22:01.881Z,7.47
2022-11-29T14:24:37.271Z,8.45
2022-11-29T14:27:06.988Z,7.25
2022-11-29T14:29:53.721Z,9.38
2022-11-29T14:33:01.170Z,7.10
2022-11-29T14:35:27.660Z,7.28
2022-11-29T14:38:04.782Z,7.80
2022-11-29T14:40:44.352Z,9.73
2022-11-29T14:43:22.946Z,10.30
2022-11-29T14:46:13.976Z,10.03
2022-11-29T14:49:01.526Z,8.98
2022-11-29T14:51:30.798Z,11.13
2022-11-29T14:54:15.569Z,10.15
2022-11-29T14:56:45.101Z,10.60
2022-11-29T15:01:57.295Z,11.82
2022-11-29T15:04:25.754Z,10.18
2022-11-29T15:06:54.758Z,9.98
2022-11-29T15:09:22.443Z,11.90
2022-11-29T15:12:02.024Z,11.30
2022-11-29T15:14:47.616Z,12.18
2022-11-29T15:17:48.835Z,10.25
2022-11-29T15:20:20.640Z,8.77
2022-11-29T15:22:55.369Z,11.50
2022-11-29T15:25:31.423Z,11.57
2022-11-29T15:27:59.455Z,10.00
2022-11-29T15:30:36.524Z,8.10
2022-11-29T15:33:20.320Z,12.25
2022-11-29T15:35:55.271Z,10.68
2022-11-29T15:38:23.866Z,11.93
2022-11-29T15:40:53.100Z,11.23
2022-11-29T15:43:23.580Z,13.25
2022-11-29T15:45:56.952Z,11.55
2022-11-29T15:48:32.502Z,12.10
2022-11-29T15:51:09.925Z,10.98
2022-11-29T15:53:38.446Z,12.82
2022-11-29T15:56:14.176Z,13.07
2022-11-29T15:58:40.922Z,10.48
2022-11-29T16:01:08.199Z,12.60
2022-11-29T16:03:35.959Z,16.15
2022-11-29T16:06:30.090Z,13.10
2022-11-29T16:08:56.740Z,14.65
2022-11-29T16:11:25.274Z,14.50
2022-11-29T16:14:10.788Z,14.87
2022-11-29T16:16:38.968Z,14.63
2022-11-29T16:19:26.030Z,14.77
2022-11-29T16:22:17.009Z,14.77
2022-11-29T16:25:01.193Z,15.38
2022-11-29T16:27:32.100Z,14.10
2022-11-29T16:29:58.808Z,14.15
2022-11-29T16:32:32.531Z,12.20
2022-11-29T16:35:07.984Z,15.98
2022-11-29T16:37:42.407Z,14.18
2022-11-29T16:40:21.271Z,12.60
2022-11-29T16:43:03.088Z,14.40
2022-11-29T16:45:42.845Z,16.85
2022-11-29T16:48:26.415Z,13.27
2022-11-29T16:51:11.298Z,14.18
2022-11-29T16:53:42.727Z,15.15
2022-11-29T16:56:13.023Z,14.25
2022-11-29T16:59:16.609Z,13.75
2022-11-29T17:01:29.291Z,15.73
2022-11-29T17:03:57.506Z,19.15
2022-11-29T17:06:24.874Z,16.75
2022-11-29T17:08:52.564Z,14.93
2022-11-29T17:11:19.363Z,15.38
2022-11-29T17:13:50.141Z,14.75
2022-11-29T17:16:18.969Z,18.58
2022-11-29T17:18:45.677Z,14.82
2022-11-29T17:21:23.027Z,16.05
2022-11-29T17:23:49.926Z,14.50
2022-11-29T17:26:17.235Z,14.10
2022-11-29T17:28:44.712Z,15.48
2022-11-29T17:31:12.487Z,17.00
2022-11-29T17:33:39.167Z,14.73
2022-11-29T17:36:07.114Z,19.08
2022-11-29T17:38:34.192Z,16.25
2022-11-29T17:41:06.447Z,13.82
2022-11-29T17:43:34.696Z,12.85
2022-11-29T17:46:12.213Z,15.18
2022-11-29T17:48:38.953Z,15.13
2022-11-29T17:51:22.872Z,14.25
2022-11-29T17:53:54.228Z,14.82
2022-11-29T17:56:23.245Z,14.10
2022-11-29T17:58:54.275Z,14.30
2022-11-29T18:01:23.194Z,14.07
2022-11-29T18:03:53.177Z,14.45
2022-11-29T18:06:41.102Z,14.45
2022-11-29T18:09:09.402Z,16.98
2022-11-29T18:11:48.626Z,16.73
2022-11-29T18:16:47.028Z,12.68
2022-11-29T18:19:18.517Z,14.70
2022-11-29T18:21:45.536Z,15.90
2022-11-29T18:24:12.220Z,12.43
2022-11-29T18:26:39.170Z,13.52
2022-11-29T18:29:06.564Z,16.20
2022-11-29T18:31:35.800Z,19.00
2022-11-29T18:34:07.154Z,16.08
2022-11-29T18:36:36.382Z,13.93
2022-11-29T18:39:09.035Z,14.50
2022-11-29T18:41:36.703Z,15.65
2022-11-29T18:44:09.219Z,13.95
2022-11-29T18:46:37.616Z,14.52
2022-11-29T18:49:09.057Z,15.20
2022-11-29T18:51:37.529Z,12.93
2022-11-29T18:54:04.710Z,14.30
2022-11-29T18:56:32.847Z,14.68
2022-11-29T18:59:02.004Z,14.30
2022-11-29T19:01:30.425Z,16.17
2022-11-29T19:04:01.798Z,13.40
2022-11-29T19:06:39.288Z,15.32
2022-11-29T19:09:08.510Z,13.57
2022-11-29T19:11:35.366Z,19.30
2022-11-29T19:14:07.971Z,15.07
2022-11-29T19:16:34.737Z,15.82
2022-11-29T19:19:01.718Z,14.43
2022-11-29T19:21:31.698Z,13.85
2022-11-29T19:24:00.285Z,14.30
2022-11-29T19:26:29.066Z,14.98
2022-11-29T19:28:56.210Z,16.65
2022-11-29T19:31:25.057Z,17.90
2022-11-29T19:33:52.808Z,14.90
2022-11-29T19:36:30.618Z,18.55
2022-11-29T19:38:59.612Z,16.92
2022-11-29T19:41:33.897Z,15.23
2022-11-29T19:44:02.971Z,17.45
2022-11-29T19:46:33.675Z,18.23
2022-11-29T19:49:02.306Z,17.20
2022-11-29T19:51:29.596Z,14.77
2022-11-29T19:53:57.987Z,14.60
2022-11-29T19:56:25.531Z,15.30
2022-11-29T19:58:52.592Z,11.32
2022-11-29T20:01:25.100Z,15.93
2022-11-29T20:03:52.317Z,13.50
2022-11-29T20:06:19.169Z,15.43
2022-11-29T20:08:45.973Z,15.18
2022-11-29T20:11:13.722Z,14.20
2022-11-29T20:13:41.990Z,15.95
2022-11-29T20:16:11.061Z,16.45
2022-11-29T20:18:39.865Z,16.15
2022-11-29T20:21:11.448Z,13.82
2022-11-29T20:23:39.167Z,15.85
2022-11-29T20:26:08.368Z,15.45
2022-11-29T20:28:35.693Z,12.27
2022-11-29T20:31:08.632Z,12.90
2022-11-29T20:33:35.444Z,13.93
2022-11-29T20:36:17.336Z,13.40
2022-11-29T20:38:52.815Z,15.23
2022-11-29T20:41:26.566Z,12.18
2022-11-29T20:43:58.967Z,12.55
2022-11-29T20:46:25.955Z,13.07
2022-11-29T20:48:53.616Z,13.35
2022-11-29T20:51:26.059Z,12.27
2022-11-29T20:53:52.573Z,13.43
2022-11-29T20:56:19.164Z,14.88
2022-11-29T20:58:45.726Z,12.88
2022-11-29T21:01:12.397Z,12.57
2022-11-29T21:03:39.320Z,12.02
2022-11-29T21:06:06.620Z,14.23
2022-11-29T21:08:34.348Z,13.73
2022-11-29T21:11:07.502Z,11.30
2022-11-29T21:13:34.548Z,14.90
2022-11-29T21:16:01.502Z,13.55
2022-11-29T21:18:29.582Z,13.27
2022-11-29T21:21:21.013Z,10.95
2022-11-29T21:24:06.745Z,13.77
2022-11-29T21:26:41.795Z,12.20
2022-11-29T21:29:22.846Z,11.60
2022-11-29T21:31:51.905Z,9.35
2022-11-29T21:34:19.339Z,10.30
2022-11-29T21:36:53.196Z,10.75
2022-11-29T21:39:19.696Z,12.48
2022-11-29T21:41:49.847Z,13.10
2022-11-29T21:44:16.423Z,15.68
2022-11-29T21:46:42.964Z,13.93
2022-11-29T21:49:09.566Z,12.20
2022-11-29T21:51:36.234Z,12.48
2022-11-29T21:54:03.047Z,15.40
2022-11-29T21:56:29.619Z,11.73
2022-11-29T21:58:56.139Z,14.07
2022-11-29T22:01:22.734Z,13.57
2022-11-29T22:03:52.323Z,16.42
2022-11-29T22:08:47.929Z,15.18
2022-11-29T22:11:30.882Z,14.25
2022-11-29T22:14:14.174Z,18.10
2022-11-29T22:16:47.246Z,15.15
2022-11-29T22:19:18.467Z,18.58
2022-11-29T22:21:47.940Z,19.77
2022-11-29T22:24:16.310Z,21.42
2022-11-29T22:26:43.749Z,16.67
2022-11-29T22:29:11.403Z,14.93
2022-11-29T22:31:37.986Z,12.27
2022-11-29T22:34:04.594Z,13.15
2022-11-29T22:36:31.336Z,9.95
2022-11-29T22:38:57.882Z,9.48
2022-11-29T22:41:24.540Z,13.35
2022-11-29T22:43:51.572Z,12.13
2022-11-29T22:46:23.502Z,11.52
2022-11-29T22:48:52.711Z,11.18
2022-11-29T22:51:30.755Z,14.98
2022-11-29T22:53:59.498Z,10.38
2022-11-29T22:56:28.926Z,11.13
2022-11-29T22:58:55.706Z,12.68
2022-11-29T23:01:24.334Z,11.80
2022-11-29T23:03:53.788Z,11.97
2022-11-29T23:08:52.202Z,11.07
2022-11-29T23:11:24.356Z,12.23
2022-11-29T23:13:50.937Z,13.07
2022-11-29T23:16:20.631Z,11.15
2022-11-29T23:18:47.709Z,10.90
2022-11-29T23:21:24.898Z,13.38
2022-11-29T23:23:56.278Z,10.82
2022-11-29T23:26:37.546Z,11.63
2022-11-29T23:29:05.897Z,10.73
2022-11-29T23:31:33.211Z,11.18
2022-11-29T23:34:00.083Z,10.50
2022-11-29T23:36:26.629Z,11.05
2022-11-29T23:38:53.198Z,10.40
2022-11-29T23:41:20.195Z,12.98
2022-11-29T23:43:46.726Z,12.05
2022-11-29T23:46:16.286Z,16.70
2022-11-29T23:48:43.192Z,15.05
2022-11-29T23:51:10.359Z,17.02
2022-11-29T23:53:37.024Z,15.50
2022-11-29T23:56:06.761Z,16.70
2022-11-29T23:58:34.072Z,15.75
